Time;durP1;ratioP1;P1;durP2;ratioP2;P2;SDS_P1;SDS_P2;PMS_P1;PMS_P2;Temp;Humidity;BMP_temperature;BMP_pressure;BME280_temperature;BME280_humidity;BME280_pressure;Samples;Min_cycle;Max_cycle;Signal;HPM_P1;HPM_P2
2021/12/31 00:00:27;;;;;;;4.63;1.80;;;;;;;13.13;100.00;99568.63;4992145;28;20301;-82
2021/12/31 00:02:56;;;;;;;4.37;2.23;;;;;;;13.06;100.00;99571.81;5011218;28;20222;-82
2021/12/31 00:05:25;;;;;;;3.03;1.70;;;;;;;13.25;100.00;99582.06;5008465;28;20199;-82
2021/12/31 00:07:54;;;;;;;4.30;1.80;;;;;;;13.09;100.00;99579.56;5008441;28;20676;-83
2021/12/31 00:10:22;;;;;;;4.97;1.83;;;;;;;13.16;100.00;99570.22;5017658;28;20194;-82
2021/12/31 00:12:51;;;;;;;5.17;1.90;;;;;;;13.11;100.00;99573.16;5015555;28;20190;-82
2021/12/31 00:15:19;;;;;;;4.73;2.30;;;;;;;13.10;100.00;99574.13;5010081;28;20210;-82
2021/12/31 00:17:49;;;;;;;3.93;1.80;;;;;;;13.11;100.00;99569.66;5015637;28;20186;-83
2021/12/31 00:20:21;;;;;;;5.47;1.90;;;;;;;13.06;100.00;99571.81;4990541;28;20281;-83
2021/12/31 00:25:34;;;;;;;3.93;2.10;;;;;;;12.91;100.00;99568.34;5019155;28;20186;-83
2021/12/31 00:28:03;;;;;;;7.13;2.73;;;;;;;12.91;100.00;99576.31;4916549;29;20289;-83
2021/12/31 00:30:32;;;;;;;5.47;2.07;;;;;;;12.96;100.00;99578.69;4910687;29;20205;-83
2021/12/31 00:33:04;;;;;;;5.53;2.10;;;;;;;13.05;100.00;99584.25;4914296;29;20206;-82
2021/12/31 00:35:34;;;;;;;6.83;3.20;;;;;;;13.00;100.00;99593.47;4910492;29;20206;-83
2021/12/31 00:38:08;;;;;;;4.00;2.00;;;;;;;13.09;100.00;99583.06;4912345;29;20264;-83
2021/12/31 00:40:38;;;;;;;6.57;2.30;;;;;;;12.98;100.00;99582.09;4914335;29;20205;-83
2021/12/31 00:43:13;;;;;;;4.13;2.13;;;;;;;12.95;100.00;99575.19;4902270;29;20210;-83
2021/12/31 00:45:45;;;;;;;6.93;2.30;;;;;;;13.02;100.00;99588.91;4946150;28;20197;-82
2021/12/31 00:48:20;;;;;;;4.73;1.90;;;;;;;13.02;100.00;99588.91;5010588;28;20241;-83
2021/12/31 00:50:56;;;;;;;4.87;1.83;;;;;;;13.02;100.00;99588.91;5010289;28;20267;-83
2021/12/31 00:53:28;;;;;;;7.50;1.90;;;;;;;13.02;100.00;99589.75;5014523;28;20202;-82
2021/12/31 00:56:11;;;;;;;5.00;2.00;;;;;;;13.12;100.00;99582.00;5012515;28;20221;-83
2021/12/31 00:58:49;;;;;;;7.67;2.20;;;;;;;13.11;100.00;99586.47;5016098;28;20202;-82
2021/12/31 01:01:25;;;;;;;3.00;2.07;;;;;;;13.04;100.00;99587.00;5017910;28;20212;-82
2021/12/31 01:04:03;;;;;;;6.97;2.13;;;;;;;13.07;100.00;99579.66;5017933;28;20446;-83
2021/12/31 01:06:37;;;;;;;4.50;2.40;;;;;;;13.01;100.00;99580.06;5011216;28;20252;-83
2021/12/31 01:09:08;;;;;;;4.17;2.10;;;;;;;13.10;100.00;99574.13;5032220;28;20213;-82
2021/12/31 01:11:41;;;;;;;5.60;2.33;;;;;;;13.15;100.00;99577.34;5016930;28;20190;-83
2021/12/31 01:14:21;;;;;;;7.90;2.43;;;;;;;13.07;100.00;99581.47;5008611;28;20662;-83
2021/12/31 01:16:56;;;;;;;3.57;2.07;;;;;;;13.07;100.00;99581.47;5011173;28;20593;-83
2021/12/31 01:19:48;;;;;;;4.23;2.10;;;;;;;12.99;100.00;99586.44;5014371;28;20226;-83
2021/12/31 01:22:19;;;;;;;5.93;2.80;;;;;;;13.04;100.00;99593.19;5014389;28;20210;-82
2021/12/31 01:24:49;;;;;;;6.70;2.40;;;;;;;13.08;100.00;99589.34;5020970;28;20226;-81
2021/12/31 01:27:17;;;;;;;8.90;2.90;;;;;;;13.12;100.00;99588.19;5016289;28;20194;-81
2021/12/31 01:29:46;;;;;;;5.87;2.30;;;;;;;13.06;100.00;99588.59;5008425;28;20668;-81
2021/12/31 01:32:15;;;;;;;5.17;2.43;;;;;;;12.97;100.00;99599.84;5013504;28;20191;-81
2021/12/31 01:34:46;;;;;;;5.00;2.30;;;;;;;12.98;100.00;99598.91;5011106;28;20198;-81
2021/12/31 01:37:14;;;;;;;6.27;2.10;;;;;;;13.02;100.00;99592.41;5014823;28;20195;-82
2021/12/31 01:39:43;;;;;;;6.10;2.67;;;;;;;12.96;100.00;99586.66;4953060;29;20722;-82
2021/12/31 01:42:14;;;;;;;6.67;2.27;;;;;;;12.97;100.00;99591.88;4961465;29;20204;-81
2021/12/31 01:44:46;;;;;;;7.07;2.37;;;;;;;13.02;100.00;99586.25;4947321;29;20416;-81
2021/12/31 01:47:16;;;;;;;4.83;2.30;;;;;;;12.94;100.00;99586.78;4946174;28;20283;-82
2021/12/31 01:49:55;;;;;;;4.70;2.33;;;;;;;13.02;100.00;99580.91;4954377;29;20200;-81
2021/12/31 01:52:25;;;;;;;7.43;2.53;;;;;;;12.96;100.00;99574.22;4959632;29;20655;-81
2021/12/31 01:54:54;;;;;;;6.07;2.43;;;;;;;12.89;100.00;99580.91;4949760;29;20207;-82
2021/12/31 01:57:24;;;;;;;5.90;2.43;;;;;;;12.98;100.00;99580.28;4975291;28;20209;-81
2021/12/31 01:59:52;;;;;;;5.87;2.53;;;;;;;12.89;100.00;99579.09;5021023;28;20203;-81
2021/12/31 02:02:21;;;;;;;6.47;2.23;;;;;;;12.83;100.00;99578.63;5012547;28;20206;-82
2021/12/31 02:04:51;;;;;;;5.07;2.23;;;;;;;12.87;100.00;99578.34;5016041;28;20229;-81
2021/12/31 02:07:20;;;;;;;4.93;2.30;;;;;;;12.86;100.00;99566.00;5018166;28;20190;-81
2021/12/31 02:09:51;;;;;;;5.10;2.43;;;;;;;12.90;100.00;99569.31;5013720;28;20198;-81
2021/12/31 02:12:21;;;;;;;4.50;2.30;;;;;;;12.92;100.00;99572.72;5014059;28;20202;-81
2021/12/31 02:14:52;;;;;;;5.17;2.17;;;;;;;13.03;100.00;99574.69;5008858;28;20195;-81
2021/12/31 02:17:21;;;;;;;3.97;2.10;;;;;;;13.06;100.00;99574.47;5017560;28;20194;-81
2021/12/31 02:20:00;;;;;;;6.03;2.60;;;;;;;13.12;100.00;99569.59;5014706;28;20225;-81
2021/12/31 02:22:30;;;;;;;4.20;2.30;;;;;;;13.05;100.00;99568.28;5018426;28;20241;-81
2021/12/31 02:25:01;;;;;;;4.20;2.10;;;;;;;13.09;100.00;99558.28;5013494;28;20226;-81
2021/12/31 02:27:29;;;;;;;8.43;2.30;;;;;;;13.12;100.00;99561.59;5021155;28;20198;-81
2021/12/31 02:29:58;;;;;;;5.03;1.90;;;;;;;13.12;100.00;99558.06;5019504;28;20198;-81
2021/12/31 02:32:26;;;;;;;5.40;1.93;;;;;;;13.13;100.00;99552.66;5018142;28;20207;-81
2021/12/31 02:34:55;;;;;;;3.93;2.53;;;;;;;13.22;100.00;99545.91;5011197;28;20252;-81
2021/12/31 02:37:25;;;;;;;4.60;1.77;;;;;;;13.29;100.00;99557.81;5010833;28;20206;-82
2021/12/31 02:39:53;;;;;;;5.93;1.90;;;;;;;13.25;100.00;99551.00;5015206;28;20190;-82
2021/12/31 02:42:23;;;;;;;4.53;2.10;;;;;;;13.25;100.00;99561.66;5021415;28;20206;-82
2021/12/31 02:44:54;;;;;;;3.47;1.70;;;;;;;13.21;100.00;99562.78;5012043;28;20265;-81
2021/12/31 02:47:22;;;;;;;6.27;1.70;;;;;;;13.06;100.00;99554.03;5015278;28;20226;-81
2021/12/31 02:49:51;;;;;;;2.57;1.80;;;;;;;13.06;100.00;99570.00;5019701;28;20232;-81
2021/12/31 02:52:19;;;;;;;2.37;1.67;;;;;;;13.07;100.00;99555.72;5014796;28;20205;-81
2021/12/31 02:54:50;;;;;;;5.13;1.90;;;;;;;13.07;100.00;99561.06;5007369;28;20221;-81
2021/12/31 02:57:20;;;;;;;4.93;1.87;;;;;;;13.06;100.00;99561.16;5016887;28;20229;-81
2021/12/31 02:59:50;;;;;;;3.80;1.90;;;;;;;13.06;100.00;99559.34;5012864;28;20195;-81
2021/12/31 03:02:25;;;;;;;5.40;2.10;;;;;;;12.98;100.00;99551.03;5011268;28;20210;-81
2021/12/31 03:04:54;;;;;;;4.07;1.70;;;;;;;13.02;100.00;99554.31;5017527;28;20226;-81
2021/12/31 03:07:24;;;;;;;4.33;1.70;;;;;;;13.11;100.00;99561.69;5016423;28;20198;-81
2021/12/31 03:09:55;;;;;;;5.67;2.07;;;;;;;13.11;100.00;99561.69;5008827;28;20195;-81
2021/12/31 03:12:25;;;;;;;5.17;1.80;;;;;;;13.15;100.00;99557.88;5012654;28;20331;-81
2021/12/31 03:14:54;;;;;;;3.43;1.80;;;;;;;13.11;100.00;99551.03;5013938;28;20198;-80
2021/12/31 03:17:25;;;;;;;5.10;1.63;;;;;;;13.06;100.00;99556.69;5019737;28;20186;-81
2021/12/31 03:20:07;;;;;;;3.23;1.70;;;;;;;13.06;100.00;99556.69;5019931;28;20256;-81
2021/12/31 03:22:35;;;;;;;3.23;1.70;;;;;;;13.08;100.00;99551.25;5014855;28;20221;-81
2021/12/31 03:25:07;;;;;;;5.87;1.90;;;;;;;13.08;100.00;99551.25;5012616;28;20228;-81
2021/12/31 03:27:36;;;;;;;5.50;2.27;;;;;;;13.03;100.00;99543.63;5012835;28;20217;-81
2021/12/31 03:30:06;;;;;;;6.00;2.30;;;;;;;13.05;100.00;99538.19;5013087;28;20216;-81
2021/12/31 03:32:34;;;;;;;4.80;1.97;;;;;;;13.09;100.00;99529.88;5015660;28;20191;-81
2021/12/31 03:35:03;;;;;;;5.80;2.00;;;;;;;12.98;100.00;99532.41;5009801;28;20206;-81
2021/12/31 03:37:37;;;;;;;5.77;2.07;;;;;;;13.09;100.00;99531.69;4981988;28;20199;-80
2021/12/31 03:40:09;;;;;;;3.10;1.87;;;;;;;12.92;100.00;99535.47;5013806;28;20202;-80
2021/12/31 03:42:39;;;;;;;5.27;1.97;;;;;;;12.87;100.00;99532.31;5020340;28;20225;-80
2021/12/31 03:45:09;;;;;;;5.87;2.17;;;;;;;12.94;100.00;99530.94;5016570;28;20298;-81
2021/12/31 03:47:37;;;;;;;4.90;1.77;;;;;;;12.90;100.00;99530.28;5014949;28;20229;-81
2021/12/31 03:50:06;;;;;;;7.10;2.47;;;;;;;12.98;100.00;99515.63;5012726;28;20210;-81
2021/12/31 03:52:38;;;;;;;5.23;1.93;;;;;;;13.01;100.00;99520.72;5012475;28;20198;-81
2021/12/31 03:55:11;;;;;;;3.57;1.90;;;;;;;12.93;100.00;99526.56;5010841;28;20202;-81
2021/12/31 03:57:39;;;;;;;4.73;2.00;;;;;;;12.84;100.00;99524.53;5014497;28;20198;-81
2021/12/31 04:00:10;;;;;;;4.63;1.67;;;;;;;12.91;100.00;99531.13;5020906;28;20198;-81
2021/12/31 04:02:38;;;;;;;4.10;2.07;;;;;;;12.61;100.00;99531.38;5016833;28;20209;-81
2021/12/31 04:05:08;;;;;;;7.60;2.17;;;;;;;12.61;100.00;99531.38;5014920;28;20207;-81
2021/12/31 04:07:36;;;;;;;3.60;1.70;;;;;;;12.61;100.00;99531.38;5012892;28;20186;-81
2021/12/31 04:10:06;;;;;;;7.90;2.00;;;;;;;12.61;100.00;99526.06;5015037;28;20210;-81
2021/12/31 04:12:37;;;;;;;4.30;2.07;;;;;;;12.62;100.00;99533.06;5019129;28;20209;-80
2021/12/31 04:15:06;;;;;;;8.47;2.20;;;;;;;12.55;100.00;99527.34;5017404;28;20206;-81
2021/12/31 04:17:34;;;;;;;4.63;2.03;;;;;;;12.63;100.00;99525.94;5029853;28;20259;-79
2021/12/31 04:20:02;;;;;;;5.43;2.13;;;;;;;12.73;100.00;99530.56;5022639;28;20234;-81
2021/12/31 04:22:31;;;;;;;3.53;1.80;;;;;;;12.73;100.00;99524.38;5014299;28;20198;-81
2021/12/31 04:25:00;;;;;;;5.90;1.97;;;;;;;12.71;100.00;99520.97;5014691;28;20190;-81
2021/12/31 04:27:28;;;;;;;4.80;2.13;;;;;;;12.73;100.00;99513.75;4970197;28;20192;-80
2021/12/31 04:29:57;;;;;;;5.73;2.33;;;;;;;12.81;100.00;99512.28;4968682;28;20200;-81
2021/12/31 04:32:26;;;;;;;8.37;2.87;;;;;;;12.72;100.00;99504.06;4969271;28;20188;-81
2021/12/31 04:34:54;;;;;;;8.13;2.30;;;;;;;12.73;100.00;99511.09;4971400;28;20207;-80
2021/12/31 04:37:22;;;;;;;4.50;2.10;;;;;;;12.70;100.00;99509.50;4969401;28;20204;-80
2021/12/31 04:39:51;;;;;;;4.20;1.73;;;;;;;12.82;100.00;99506.00;4970085;28;20199;-81
2021/12/31 04:42:19;;;;;;;3.40;1.83;;;;;;;12.81;100.00;99512.28;4975284;28;20195;-81
2021/12/31 04:44:48;;;;;;;5.10;2.20;;;;;;;12.79;100.00;99506.22;4972563;28;20196;-81
2021/12/31 04:47:23;;;;;;;3.20;1.80;;;;;;;12.87;100.00;99509.22;5011279;28;20214;-81
2021/12/31 04:49:52;;;;;;;4.13;1.70;;;;;;;12.96;100.00;99512.22;5015573;28;20209;-81
2021/12/31 04:52:20;;;;;;;4.43;2.10;;;;;;;12.87;100.00;99511.88;5010841;28;20187;-81
2021/12/31 04:54:48;;;;;;;8.00;2.23;;;;;;;12.94;100.00;99512.31;5004393;28;20249;-80
2021/12/31 04:57:20;;;;;;;6.00;2.40;;;;;;;12.90;100.00;99516.97;5008354;28;20202;-81
2021/12/31 04:59:48;;;;;;;6.83;2.00;;;;;;;13.01;100.00;99518.91;5013361;28;20206;-80
2021/12/31 05:02:16;;;;;;;5.63;2.40;;;;;;;12.89;100.00;99520.59;5006737;28;20238;-81
2021/12/31 05:04:46;;;;;;;4.70;1.90;;;;;;;12.86;100.00;99519.97;5013526;28;20194;-81
2021/12/31 05:07:14;;;;;;;5.33;1.90;;;;;;;12.93;100.00;99528.34;5011802;28;20218;-81
2021/12/31 05:09:43;;;;;;;4.70;1.80;;;;;;;12.93;100.00;99518.56;5009841;28;20213;-81
2021/12/31 05:12:15;;;;;;;4.97;2.30;;;;;;;12.76;100.00;99517.06;5007812;28;20190;-81
2021/12/31 05:14:45;;;;;;;3.80;1.80;;;;;;;12.89;100.00;99520.59;5004712;28;20197;-80
2021/12/31 05:17:13;;;;;;;4.87;2.10;;;;;;;12.92;100.00;99526.66;5008843;28;20252;-81
2021/12/31 05:19:44;;;;;;;4.33;2.07;;;;;;;12.82;100.00;99524.63;5008362;28;20230;-81
2021/12/31 05:22:14;;;;;;;6.33;2.00;;;;;;;12.76;100.00;99527.72;5013914;28;20202;-81
2021/12/31 05:24:43;;;;;;;5.40;2.57;;;;;;;12.64;100.00;99535.63;5013343;28;20198;-81
2021/12/31 05:27:11;;;;;;;3.77;2.13;;;;;;;12.55;100.00;99535.31;4981379;28;20222;-81
2021/12/31 05:29:39;;;;;;;4.47;2.20;;;;;;;12.55;100.00;99539.78;5014011;28;20252;-81
2021/12/31 05:32:09;;;;;;;7.97;2.80;;;;;;;12.43;100.00;99535.25;5018205;28;20192;-81
2021/12/31 05:34:37;;;;;;;6.80;2.80;;;;;;;12.29;100.00;99531.69;5014823;28;20190;-80
2021/12/31 05:37:07;;;;;;;4.67;2.40;;;;;;;12.28;100.00;99526.50;5015083;28;20194;-80
2021/12/31 05:39:36;;;;;;;5.33;2.60;;;;;;;12.29;100.00;99534.34;5017403;28;20248;-81
2021/12/31 05:42:05;;;;;;;7.93;2.90;;;;;;;12.16;100.00;99528.16;5017525;28;20198;-81
2021/12/31 05:44:34;;;;;;;4.60;2.70;;;;;;;12.19;100.00;99532.41;5013460;28;20218;-81
2021/12/31 05:47:02;;;;;;;7.90;3.40;;;;;;;12.23;100.00;99545.38;5014803;28;20241;-81
2021/12/31 05:49:30;;;;;;;8.37;3.27;;;;;;;12.26;100.00;99547.84;5009202;28;20252;-81
2021/12/31 05:51:59;;;;;;;4.43;2.80;;;;;;;12.26;100.00;99547.84;5015889;28;20195;-81
2021/12/31 05:54:27;;;;;;;4.27;2.30;;;;;;;12.10;100.00;99531.19;5017370;28;20206;-81
2021/12/31 05:56:57;;;;;;;6.13;2.73;;;;;;;12.13;100.00;99527.47;5011984;28;20204;-81
2021/12/31 05:59:26;;;;;;;5.07;2.90;;;;;;;12.16;100.00;99527.25;5016781;28;20205;-81
2021/12/31 06:01:54;;;;;;;5.60;3.03;;;;;;;12.01;100.00;99532.63;5017311;28;20657;-81
2021/12/31 06:04:23;;;;;;;7.53;2.77;;;;;;;12.15;100.00;99531.72;5010699;28;20202;-81
2021/12/31 06:06:52;;;;;;;7.23;2.67;;;;;;;12.21;100.00;99530.47;5010839;28;20217;-80
2021/12/31 06:09:20;;;;;;;7.47;2.87;;;;;;;12.15;100.00;99523.75;5015435;28;20206;-81
2021/12/31 06:11:50;;;;;;;4.03;2.87;;;;;;;12.11;100.00;99524.06;5008600;28;20222;-81
2021/12/31 06:14:19;;;;;;;5.90;2.90;;;;;;;12.08;100.00;99521.63;5013087;28;20206;-81
2021/12/31 06:16:48;;;;;;;5.70;2.63;;;;;;;12.08;100.00;99524.28;5007900;28;20198;-81
2021/12/31 06:19:18;;;;;;;8.17;2.50;;;;;;;12.07;100.00;99526.06;5013857;28;20230;-81
2021/12/31 06:21:47;;;;;;;6.20;2.80;;;;;;;11.98;100.00;99524.88;5008838;28;20202;-81
2021/12/31 06:24:15;;;;;;;4.27;2.20;;;;;;;11.86;100.00;99530.94;5011717;28;20202;-81
2021/12/31 06:26:44;;;;;;;5.53;2.30;;;;;;;11.86;100.00;99533.56;5016796;28;20221;-80
2021/12/31 06:29:13;;;;;;;3.37;2.10;;;;;;;11.92;100.00;99542.97;5013061;28;20202;-81
2021/12/31 06:31:45;;;;;;;3.73;1.97;;;;;;;11.92;100.00;99542.97;5012916;28;20198;-81
2021/12/31 06:34:13;;;;;;;7.53;2.30;;;;;;;12.03;100.00;99548.44;5012707;28;20253;-82
2021/12/31 06:36:42;;;;;;;4.60;2.23;;;;;;;11.85;100.00;99554.91;5017520;28;20221;-81
2021/12/31 06:39:11;;;;;;;4.50;2.20;;;;;;;11.82;100.00;99555.97;5012169;28;20257;-81
2021/12/31 06:41:40;;;;;;;3.90;2.30;;;;;;;11.85;100.00;99547.81;5010788;28;20202;-81
2021/12/31 06:44:08;;;;;;;4.23;2.37;;;;;;;11.83;100.00;99555.00;5011695;28;20198;-81
2021/12/31 06:46:36;;;;;;;3.47;2.50;;;;;;;11.82;100.00;99558.63;5011871;28;20206;-81
2021/12/31 06:49:06;;;;;;;6.47;2.50;;;;;;;11.83;100.00;99557.66;5016235;28;20273;-81
2021/12/31 06:51:34;;;;;;;4.23;2.20;;;;;;;11.88;100.00;99555.59;5013459;28;20205;-81
2021/12/31 06:54:04;;;;;;;5.17;3.10;;;;;;;11.75;100.00;99549.31;5010232;28;20244;-81
2021/12/31 06:56:32;;;;;;;9.60;5.40;;;;;;;11.75;100.00;99554.59;5013558;28;20206;-81
2021/12/31 06:59:00;;;;;;;9.63;4.37;;;;;;;11.72;100.00;99542.38;5008335;28;20202;-81
2021/12/31 07:01:28;;;;;;;8.00;4.00;;;;;;;11.65;100.00;99550.81;5009628;28;20217;-81
2021/12/31 07:03:57;;;;;;;7.70;3.33;;;;;;;11.65;100.00;99542.88;5013253;28;20198;-81
2021/12/31 07:06:27;;;;;;;5.67;3.07;;;;;;;11.54;100.00;99534.72;5011242;28;20213;-80
2021/12/31 07:08:56;;;;;;;4.17;2.60;;;;;;;11.49;100.00;99539.47;5011144;28;20221;-80
2021/12/31 07:11:25;;;;;;;5.13;2.60;;;;;;;11.49;100.00;99539.47;5010094;28;20286;-81
2021/12/31 07:13:54;;;;;;;9.10;2.27;;;;;;;11.33;100.00;99537.75;5011211;28;20207;-80
2021/12/31 07:16:22;;;;;;;8.40;2.20;;;;;;;11.24;100.00;99540.97;5011214;28;20202;-81
2021/12/31 07:18:50;;;;;;;3.50;2.20;;;;;;;11.34;100.00;99541.25;5012714;28;20230;-81
2021/12/31 07:21:18;;;;;;;4.23;2.70;;;;;;;11.34;100.00;99541.25;5005618;28;20206;-81
2021/12/31 07:23:48;;;;;;;5.13;2.47;;;;;;;10.98;100.00;99547.81;5011046;28;20257;-81
2021/12/31 07:26:16;;;;;;;6.17;4.13;;;;;;;10.98;100.00;99547.81;5015778;28;20664;-81
2021/12/31 07:28:44;;;;;;;8.60;5.30;;;;;;;10.97;100.00;99542.59;5010636;28;20214;-81
2021/12/31 07:31:14;;;;;;;8.87;5.73;;;;;;;10.99;100.00;99546.88;5011131;28;20186;-81
2021/12/31 07:33:42;;;;;;;9.60;5.87;;;;;;;10.92;100.00;99544.69;5009804;28;20198;-81
2021/12/31 07:36:14;;;;;;;8.27;5.60;;;;;;;10.92;100.00;99544.69;5013333;28;20194;-80
2021/12/31 07:38:48;;;;;;;23.47;12.40;;;;;;;11.25;100.00;99555.91;5008804;28;20291;-80
2021/12/31 07:41:18;;;;;;;40.90;23.17;;;;;;;11.32;100.00;99545.81;5008511;28;20679;-80
2021/12/31 07:43:47;;;;;;;37.93;21.17;;;;;;;11.32;100.00;99548.44;5008276;28;20209;-80
2021/12/31 07:46:16;;;;;;;26.03;14.30;;;;;;;11.17;100.00;99548.41;5015548;28;20195;-83
2021/12/31 07:48:44;;;;;;;6.27;4.10;;;;;;;11.26;100.00;99543.50;5005689;28;20230;-81
2021/12/31 07:51:12;;;;;;;15.70;13.87;;;;;;;11.26;100.00;99543.50;5009801;28;20194;-81
2021/12/31 07:53:40;;;;;;;12.47;8.93;;;;;;;11.17;100.00;99537.81;5009258;28;20202;-81
2021/12/31 07:56:09;;;;;;;6.63;4.30;;;;;;;11.03;100.00;99545.75;5007925;28;20213;-81
2021/12/31 07:58:39;;;;;;;5.50;3.90;;;;;;;11.18;100.00;99544.81;5013039;28;20198;-81
2021/12/31 08:01:07;;;;;;;5.67;3.83;;;;;;;11.17;100.00;99552.88;5011058;28;20190;-81
2021/12/31 08:03:35;;;;;;;6.13;4.10;;;;;;;11.17;100.00;99552.88;5011358;28;20228;-81
2021/12/31 08:06:05;;;;;;;8.50;4.60;;;;;;;11.17;100.00;99552.88;5010880;28;20198;-81
2021/12/31 08:08:33;;;;;;;6.80;3.80;;;;;;;11.10;100.00;99564.81;5010392;28;20218;-81
2021/12/31 08:11:01;;;;;;;6.00;3.73;;;;;;;11.15;100.00;99568.03;5014713;28;20198;-81
2021/12/31 08:13:29;;;;;;;6.83;3.40;;;;;;;11.26;100.00;99559.41;5012106;28;20195;-81
2021/12/31 08:15:59;;;;;;;4.07;3.27;;;;;;;11.24;100.00;99562.16;5004727;28;20270;-81
2021/12/31 08:18:27;;;;;;;4.90;3.00;;;;;;;11.31;100.00;99562.66;5014799;28;20199;-81
2021/12/31 08:20:56;;;;;;;7.80;3.00;;;;;;;11.36;100.00;99572.03;4992881;28;20202;-81
2021/12/31 08:23:25;;;;;;;5.50;2.67;;;;;;;11.45;100.00;99566.16;4994825;28;20210;-81
2021/12/31 08:25:53;;;;;;;4.47;2.70;;;;;;;11.51;100.00;99580.88;4987136;28;20207;-81
2021/12/31 08:28:21;;;;;;;5.13;3.17;;;;;;;11.60;100.00;99585.63;4988982;28;20226;-81
2021/12/31 08:30:49;;;;;;;5.33;2.90;;;;;;;11.66;100.00;99571.09;4992216;28;20195;-81
2021/12/31 08:33:19;;;;;;;4.57;2.90;;;;;;;11.64;100.00;99581.81;4995067;28;20275;-81
2021/12/31 08:35:48;;;;;;;9.13;3.50;;;;;;;11.70;100.00;99569.97;4992006;28;20197;-80
2021/12/31 08:38:17;;;;;;;10.70;5.40;;;;;;;11.85;100.00;99562.88;4988973;28;20206;-81
2021/12/31 08:40:45;;;;;;;7.00;3.60;;;;;;;11.89;100.00;99564.41;4992045;28;20249;-80
2021/12/31 08:43:13;;;;;;;12.73;6.57;;;;;;;12.16;100.00;99561.78;4991514;28;20210;-80
2021/12/31 08:45:41;;;;;;;6.30;3.10;;;;;;;12.20;100.00;99560.66;4993578;28;20207;-81
2021/12/31 08:48:10;;;;;;;8.43;3.10;;;;;;;12.21;100.00;99560.53;4990061;28;20270;-81
2021/12/31 08:50:39;;;;;;;5.67;3.20;;;;;;;12.36;100.00;99555.22;4990658;28;20198;-82
2021/12/31 08:53:07;;;;;;;5.47;2.60;;;;;;;12.46;100.00;99548.34;4995301;28;20254;-81
2021/12/31 08:55:36;;;;;;;4.87;2.80;;;;;;;12.59;100.00;99552.75;4987018;28;20210;-81
2021/12/31 08:58:04;;;;;;;4.30;2.60;;;;;;;12.65;100.00;99543.53;4991406;28;20202;-81
2021/12/31 09:00:33;;;;;;;6.90;2.70;;;;;;;12.64;100.00;99535.63;4993249;28;20658;-81
2021/12/31 09:03:01;;;;;;;5.97;2.83;;;;;;;12.70;100.00;99524.59;4989042;28;20201;-81
2021/12/31 09:05:33;;;;;;;11.63;9.43;;;;;;;12.82;100.00;99521.13;4994458;28;20199;-81
2021/12/31 09:08:02;;;;;;;5.87;4.90;;;;;;;12.68;100.00;99519.38;4915184;29;20232;-81
2021/12/31 09:10:30;;;;;;;9.13;3.63;;;;;;;12.69;100.00;99521.09;4911669;29;20210;-81
2021/12/31 09:12:59;;;;;;;4.10;3.20;;;;;;;12.59;100.00;99509.38;4915351;29;20197;-81
2021/12/31 09:15:27;;;;;;;7.23;3.40;;;;;;;12.55;100.00;99507.88;4910068;29;20205;-81
2021/12/31 09:17:59;;;;;;;7.30;2.60;;;;;;;12.66;100.00;99510.69;4910515;29;20202;-81
2021/12/31 09:20:28;;;;;;;5.47;3.00;;;;;;;12.48;100.00;99519.88;4925443;29;20281;-81
2021/12/31 09:22:57;;;;;;;6.40;2.80;;;;;;;12.74;100.00;99526.97;4930344;29;20209;-81
2021/12/31 09:25:26;;;;;;;5.67;2.47;;;;;;;12.53;100.00;99529.22;4940790;28;20206;-81
2021/12/31 09:27:54;;;;;;;5.90;2.73;;;;;;;12.84;100.00;99524.53;4989093;28;20191;-81
2021/12/31 09:30:23;;;;;;;5.10;2.93;;;;;;;13.00;100.00;99537.63;4992962;28;20250;-80
2021/12/31 09:32:51;;;;;;;5.13;2.67;;;;;;;13.07;100.00;99526.47;4985399;28;20199;-81
2021/12/31 09:35:19;;;;;;;5.23;2.27;;;;;;;13.34;100.00;99528.22;4994914;28;20202;-81
2021/12/31 09:37:48;;;;;;;5.07;2.63;;;;;;;13.56;100.00;99536.41;4991209;28;20198;-81
2021/12/31 09:40:18;;;;;;;4.03;2.63;;;;;;;13.69;100.00;99539.06;4988049;28;20222;-81
2021/12/31 09:42:53;;;;;;;6.37;4.17;;;;;;;13.82;100.00;99537.25;4989702;28;20303;-80
2021/12/31 09:45:22;;;;;;;14.83;8.50;;;;;;;13.75;100.00;99535.97;4989039;28;20273;-81
2021/12/31 09:47:50;;;;;;;4.63;3.00;;;;;;;13.27;100.00;99545.56;4987389;28;20203;-81
2021/12/31 09:50:21;;;;;;;13.80;7.50;;;;;;;13.35;100.00;99546.75;4994220;28;20249;-81
2021/12/31 09:52:49;;;;;;;8.23;4.40;;;;;;;13.42;100.00;99555.16;4987068;28;20210;-80
2021/12/31 09:55:36;;;;;;;19.93;17.37;;;;;;;12.83;100.00;99560.03;4991603;28;20203;-80
2021/12/31 09:58:07;;;;;;;6.40;4.30;;;;;;;12.97;100.00;99559.97;4994740;28;20187;-80
2021/12/31 10:00:41;;;;;;;5.73;2.87;;;;;;;12.83;100.00;99562.69;4992158;28;20214;-80
2021/12/31 10:03:15;;;;;;;58.17;45.63;;;;;;;12.94;100.00;99569.97;4988062;28;20234;-80
2021/12/31 10:05:45;;;;;;;9.83;7.90;;;;;;;12.99;100.00;99565.19;4988987;28;20255;-81
2021/12/31 10:08:15;;;;;;;5.70;5.10;;;;;;;12.96;100.00;99566.25;4992972;28;20217;-81
2021/12/31 10:10:43;;;;;;;7.60;3.00;;;;;;;13.18;100.00;99566.50;4997672;28;20196;-81
2021/12/31 10:13:17;;;;;;;4.30;2.20;;;;;;;13.37;100.00;99558.13;4989924;28;20195;-80
2021/12/31 10:15:51;;;;;;;2.93;1.80;;;;;;;13.61;100.00;99534.28;4990834;28;20222;-80
2021/12/31 10:18:19;;;;;;;2.77;1.63;;;;;;;13.61;100.00;99534.28;4992328;28;20253;-80
2021/12/31 10:20:48;;;;;;;4.53;2.10;;;;;;;13.83;100.00;99527.44;4991554;28;20238;-80
2021/12/31 10:23:19;;;;;;;2.90;1.97;;;;;;;13.93;100.00;99526.66;4995054;28;20681;-80
2021/12/31 10:25:48;;;;;;;3.77;2.37;;;;;;;13.98;100.00;99534.31;4994356;28;20203;-80
2021/12/31 10:28:18;;;;;;;3.07;1.90;;;;;;;13.73;100.00;99536.09;4995883;28;20194;-81
2021/12/31 10:30:48;;;;;;;2.93;1.60;;;;;;;13.80;100.00;99538.28;4996052;28;20219;-80
2021/12/31 10:33:17;;;;;;;2.03;1.30;;;;;;;13.91;100.00;99538.41;4998780;28;20211;-80
2021/12/31 10:35:47;;;;;;;3.47;2.03;;;;;;;13.88;100.00;99538.59;5003206;28;20187;-79
2021/12/31 10:38:15;;;;;;;2.97;2.37;;;;;;;13.80;100.00;99543.63;5014188;28;20230;-81
2021/12/31 10:40:45;;;;;;;3.63;2.00;;;;;;;13.84;100.00;99551.28;4996662;28;20208;-80
2021/12/31 10:43:17;;;;;;;3.10;1.80;;;;;;;14.00;100.00;99543.06;4997561;28;20217;-80
2021/12/31 10:45:59;;;;;;;4.13;2.70;;;;;;;13.94;100.00;99533.69;4996547;28;20206;-81
2021/12/31 10:48:45;;;;;;;3.27;1.47;;;;;;;14.07;100.00;99525.66;4997330;28;20233;-80
2021/12/31 10:51:14;;;;;;;3.73;2.00;;;;;;;13.88;100.00;99518.16;4995765;28;20195;-80
2021/12/31 10:53:50;;;;;;;7.70;2.30;;;;;;;14.16;100.00;99509.00;4998335;28;20199;-80
2021/12/31 10:56:18;;;;;;;3.27;1.70;;;;;;;13.94;100.00;99509.72;4998940;28;20223;-81
2021/12/31 10:58:56;;;;;;;4.07;1.67;;;;;;;13.93;100.00;99502.69;4996505;28;20187;-81
2021/12/31 11:01:26;;;;;;;4.33;1.60;;;;;;;13.98;100.00;99505.88;4997321;28;20191;-80
2021/12/31 11:03:55;;;;;;;3.53;1.63;;;;;;;14.06;100.00;99507.97;4994294;28;20224;-80
2021/12/31 11:06:24;;;;;;;2.23;1.30;;;;;;;14.01;100.00;99512.81;4997690;28;20191;-80
2021/12/31 11:08:56;;;;;;;3.20;1.70;;;;;;;14.08;100.00;99514.03;4996788;28;20737;-81
2021/12/31 11:11:25;;;;;;;2.93;1.53;;;;;;;14.20;100.00;99494.50;4989646;28;20201;-80
2021/12/31 11:13:54;;;;;;;3.67;1.50;;;;;;;14.42;100.00;99485.78;4995402;28;20202;-80
2021/12/31 11:16:22;;;;;;;5.70;1.53;;;;;;;14.43;100.00;99490.13;4993922;28;20210;-80
2021/12/31 11:18:53;;;;;;;2.53;1.33;;;;;;;14.69;100.00;99479.38;4997373;28;20306;-81
2021/12/31 11:21:22;;;;;;;3.70;1.63;;;;;;;15.00;100.00;99480.53;5012511;28;20194;-81
2021/12/31 11:23:50;;;;;;;5.17;1.70;;;;;;;15.26;100.00;99468.69;5010815;28;20202;-80
2021/12/31 11:26:29;;;;;;;2.53;1.60;;;;;;;15.55;100.00;99465.56;5012042;28;20204;-80
2021/12/31 11:29:16;;;;;;;4.17;1.80;;;;;;;15.72;100.00;99468.59;5011338;28;20661;-80
2021/12/31 11:31:45;;;;;;;3.27;2.17;;;;;;;15.83;100.00;99472.25;5012039;28;20245;-80
2021/12/31 11:34:17;;;;;;;4.03;2.40;;;;;;;15.92;100.00;99459.00;5012515;28;20265;-81
2021/12/31 11:36:52;;;;;;;4.77;2.73;;;;;;;16.15;100.00;99451.75;5012568;28;20202;-81
2021/12/31 11:39:25;;;;;;;6.43;3.17;;;;;;;16.10;100.00;99453.09;5001901;28;20209;-80